< Typhoon 195219 1952 Season Typhoon 195221 >
Typhoon 195220 (AGNES)
General InformationTrack Information on Google Maps || Disaster Info.ResourceGoogle EarthGE AnimationAtom FeedGeoJSON
Detalied Best Track (Time Zone = UTC)
Year Month Day Hour Lat. Long. Pressure (hPa) Wind (kt) Class Image Chart
1952 10 29 18 13.7 145.5 1002 0 2 -- Chart
1952 10 30 00 14.0 143.5 1002 0 2 -- Chart
1952 10 30 06 14.6 142.7 1000 0 2 -- Chart
1952 10 30 12 15.0 142.0 1000 0 2 -- Chart
1952 10 30 18 15.5 141.2 995 0 2 -- Chart
1952 10 31 00 15.9 140.4 984 0 9 -- Chart
1952 10 31 06 16.4 139.2 976 0 9 -- Chart
1952 10 31 12 17.1 138.1 970 0 9 -- Chart
1952 10 31 18 17.9 137.0 970 0 9 -- Chart
1952 11 1 00 18.5 136.3 966 0 9 -- Chart
1952 11 1 06 18.6 136.7 962 0 9 -- Chart
1952 11 1 12 18.5 136.0 945 0 9 -- Chart
1952 11 1 18 18.7 135.4 930 0 9 -- Chart
1952 11 2 00 19.3 135.0 920 0 9 -- Chart
1952 11 2 06 19.8 134.8 920 0 9 -- Chart
1952 11 2 12 20.5 134.2 920 0 9 -- Chart
1952 11 2 18 21.1 133.5 920 0 9 -- Chart
1952 11 3 00 21.7 132.7 920 0 9 -- Chart
1952 11 3 06 22.4 131.9 930 0 9 -- Chart
1952 11 3 12 22.8 131.0 930 0 9 -- Chart
1952 11 3 18 23.3 130.1 930 0 9 -- Chart
1952 11 4 00 23.7 129.2 940 0 9 -- Chart
1952 11 4 06 24.7 128.6 940 0 9 -- Chart
1952 11 4 12 25.4 129.2 940 0 9 -- Chart
1952 11 4 18 25.9 129.8 945 0 9 -- Chart
1952 11 5 00 26.4 130.4 945 0 9 -- Chart
1952 11 5 06 27.9 132.1 956 0 9 -- Chart
1952 11 5 12 29.0 134.3 960 0 9 -- Chart
1952 11 5 18 30.0 137.0 960 0 9 -- Chart
1952 11 6 00 31.4 140.0 960 0 9 -- Chart
1952 11 6 06 32.3 143.3 975 0 9 -- Chart
1952 11 6 12 33.3 148.0 978 0 9 -- Chart
1952 11 6 18 34.0 153.0 980 0 9 -- Chart
1952 11 7 00 35.3 160.0 985 0 9 -- Chart
1952 11 7 06 36.7 168.0 988 0 9 -- Chart
1952 11 7 12 38.7 177.0 988 0 9 -- Chart
1952 11 7 18 41.0 187.0 990 0 9 -- Chart
Japan Meteorological Agency Best Track Data | Correction Date : 1991-07-16
< Typhoon 195219 1952 Season Typhoon 195221 >

Help